Buoy 44857

sailwx.info

Track history (hours):
 
Tides and Currents Weather Stations Pressure Air Temp Water Temp Dewpoint Dewpoint Depression Visibility Wind Speed Wind Dir Waves Ship Positions

Drifting buoy 44857

Last reported at 2017-Nov-21 09:00 UTC. Time now 2017-Nov-21 10:22 UTC.
Position N 30°26' W 026°07'.

Barometer 1008.1 mb
Water temperature 23.0 ° C

Date/timePositionNaut miles runAvg speedWind from/ knotsBaromVisibWave heightAir tempDewpointWater temp
2017-Nov-21 09:00N 30°26' W 026°07'1 1.2 1008.1 23.0
2017-Nov-21 08:00N 30°27' W 026°08'1 0.8 1006.7 23.0
2017-Nov-21 07:00N 30°28' W 026°08'1 0.8 1005.9 23.0
2017-Nov-21 06:00N 30°27' W 026°09'1 1.0 1006.0 23.0
2017-Nov-21 05:00N 30°27' W 026°10'1 0.6 1006.2 23.0
2017-Nov-21 04:00N 30°26' W 026°10'1 0.8 1007.2 23.0
2017-Nov-21 03:00N 30°26' W 026°11'1 0.6 1007.9 23.0
2017-Nov-21 02:00N 30°25' W 026°11'1 0.6 1009.0 23.0
2017-Nov-21 01:00N 30°25' W 026°11'0 0.0 1009.8 23.0
2017-Nov-21 00:00N 30°25' W 026°11'1 0.6 1010.2 23.0
2017-Nov-20 23:00N 30°24' W 026°11'1 0.5 1011.4 23.0
2017-Nov-20 22:00N 30°24' W 026°10'1 0.8 1011.8 23.0
2017-Nov-20 21:00N 30°25' W 026°11'0 0.0 1012.2 23.0
2017-Nov-20 20:00N 30°25' W 026°11'1 0.6 1012.2 22.8
2017-Nov-20 19:00N 30°24' W 026°11'1 0.5 1012.2 22.7
2017-Nov-20 18:00N 30°24' W 026°11'0 0.0 1012.3 22.7
2017-Nov-20 17:00N 30°24' W 026°11'1 0.5 1012.6 22.7
2017-Nov-20 16:00N 30°24' W 026°12'1 0.6 1013.0 22.6
2017-Nov-20 15:00N 30°23' W 026°12'1 0.5 1013.6 22.6
2017-Nov-20 14:00N 30°23' W 026°13'0 0.0 1014.7 22.6
2017-Nov-20 13:00N 30°23' W 026°13'0 0.0 1015.4 22.6
2017-Nov-20 12:00N 30°23' W 026°13'1 0.5 1016.1 22.6
2017-Nov-20 11:00N 30°23' W 026°12'1 0.6 1016.0 22.6
2017-Nov-20 10:00N 30°24' W 026°12'0 0.0 1016.0 22.6
2017-Nov-20 09:00N 30°24' W 026°12'0 0.0 1015.8 22.7
2017-Nov-20 08:00N 30°24' W 026°12'1 0.5 1015.6 22.7
2017-Nov-20 07:00N 30°24' W 026°13'0 0.0 1015.2 22.7
2017-Nov-20 06:00N 30°24' W 026°13'1 0.5 1015.0 22.7
2017-Nov-20 05:00N 30°24' W 026°13'0 0.0 1015.0 22.7
2017-Nov-20 04:00N 30°24' W 026°13'1 0.8 1015.7 22.7
2017-Nov-20 03:00N 30°23' W 026°14'1 0.6 1015.9 22.7
2017-Nov-20 02:00N 30°23' W 026°14'0 0.0 1016.2 22.8
2017-Nov-20 01:00N 30°23' W 026°14'0 0.0 1016.9 22.8
2017-Nov-20 00:00N 30°23' W 026°14'1 0.6 1017.1 22.8
2017-Nov-19 23:00N 30°22' W 026°14'1 0.8 1017.6 22.8
2017-Nov-19 22:00N 30°23' W 026°13'0 0.0 1017.8 22.8
2017-Nov-19 21:00N 30°23' W 026°13'1 0.6 1017.6 22.9
2017-Nov-19 20:00N 30°23' W 026°13'0 0.0 1017.3 22.9
2017-Nov-19 19:00N 30°23' W 026°13'0 0.0 1016.9 22.9
2017-Nov-19 18:00N 30°23' W 026°13'1 0.5 1016.8 23.0
2017-Nov-19 17:00N 30°23' W 026°14'0 0.0 1016.7 23.1
2017-Nov-19 16:00N 30°23' W 026°14'1 0.6 1016.6 23.2
2017-Nov-19 15:00N 30°24' W 026°14'1 0.5 1016.7 23.1
2017-Nov-19 14:00N 30°24' W 026°14'0 0.0 1017.7 23.1
2017-Nov-19 13:00N 30°24' W 026°14'0 0.0 1018.4 23.0
2017-Nov-19 12:00N 30°24' W 026°14'1 0.6 1018.9 22.9
2017-Nov-19 11:00N 30°25' W 026°14'1 0.6 1018.9 22.8
2017-Nov-19 10:00N 30°25' W 026°14'0 0.0 1019.3 22.7
2017-Nov-19 09:00N 30°25' W 026°14'1 0.8 1018.6 22.7
2017-Nov-19 08:00N 30°26' W 026°15'0 0.0 1017.9 22.7
2017-Nov-19 07:00N 30°26' W 026°15'1 0.8 1017.1 22.7
2017-Nov-19 06:00N 30°26' W 026°16'1 0.5 1017.0 22.7
2017-Nov-19 05:00N 30°26' W 026°16'0 0.0 1017.1 22.7
2017-Nov-19 04:00N 30°26' W 026°16'1 0.8 1017.6 22.7
2017-Nov-19 03:00N 30°26' W 026°17'0 0.0 1017.5 22.8
2017-Nov-19 02:00N 30°26' W 026°17'1 0.5 1017.9 22.7
2017-Nov-19 01:00N 30°26' W 026°16'0 0.0 1018.1 22.8
2017-Nov-19 00:00N 30°26' W 026°16'1 0.5 1017.9 22.8
2017-Nov-18 23:00N 30°26' W 026°16'1 0.6 1018.0 22.8
2017-Nov-18 22:00N 30°26' W 026°16'1 0.8 1017.8 22.8
2017-Nov-18 21:00N 30°27' W 026°15'1 1.2 1017.8 22.8
2017-Nov-18 20:00N 30°28' W 026°15'1 0.6 1017.4 22.9
2017-Nov-18 19:00N 30°29' W 026°15'1 0.8 1017.1 22.9
2017-Nov-18 18:00N 30°29' W 026°16'1 0.8 1017.1 23.0
2017-Nov-18 17:00N 30°30' W 026°16'1 0.5 1017.1 23.1
2017-Nov-18 16:00N 30°30' W 026°17'1 0.8 1017.0 23.2
2017-Nov-18 15:00N 30°31' W 026°17'0 0.0 1016.8 23.1
2017-Nov-18 14:00N 30°31' W 026°17'1 0.5 1017.3 23.0
2017-Nov-18 13:00N 30°31' W 026°18'0 0.0 1017.9 22.8
2017-Nov-18 12:00N 30°31' W 026°18'0 0.0 1018.7 22.7
2017-Nov-18 11:00N 30°31' W 026°18'0 0.0 1018.5 22.7
2017-Nov-18 10:00N 30°31' W 026°18'1 0.6 1018.2 22.7
2017-Nov-18 09:00N 30°31' W 026°18'1 0.6 1017.7 22.7
2017-Nov-18 08:00N 30°32' W 026°18'1 0.6 1017.0 22.6
2017-Nov-18 07:00N 30°32' W 026°18'1 0.8 1016.8 22.7
2017-Nov-18 06:00N 30°33' W 026°19'0 0.0 1016.6 22.7
2017-Nov-18 05:00N 30°33' W 026°19'1 0.8 1016.5 22.6
2017-Nov-18 04:00N 30°34' W 026°19'0 0.0 1016.7 22.7
2017-Nov-18 03:00N 30°34' W 026°19'1 0.8 1016.9 22.7
2017-Nov-18 02:00N 30°34' W 026°20'0 0.0 1017.4 22.7
2017-Nov-18 01:00N 30°34' W 026°20'0 0.0 1017.6 22.7
2017-Nov-18 00:00N 30°34' W 026°20'0 0.0 1017.2 22.7
2017-Nov-17 23:00N 30°34' W 026°20'1 0.8 1017.2 22.7
2017-Nov-17 22:00N 30°35' W 026°19'0 0.0 1017.3 22.6
2017-Nov-17 21:00N 30°35' W 026°19'1 0.8 1017.3 22.7
2017-Nov-17 20:00N 30°35' W 026°19'1 1.2 1016.9 22.7
2017-Nov-17 19:00N 30°37' W 026°19'1 0.6 1016.6 22.7
2017-Nov-17 18:00N 30°37' W 026°19'1 0.6 1016.3 22.8
2017-Nov-17 17:00N 30°38' W 026°19'1 0.8 1016.2 22.8
2017-Nov-17 16:00N 30°38' W 026°19'1 0.6 1016.1 22.8
2017-Nov-17 15:00N 30°39' W 026°19'1 0.5 1016.5 22.8
2017-Nov-17 14:00N 30°39' W 026°20'1 0.8 1016.8 22.7
2017-Nov-17 13:00N 30°40' W 026°20'0 0.0 1017.4 22.7
2017-Nov-17 12:00N 30°40' W 026°20'0 0.0 1018.0 22.7
2017-Nov-17 11:00N 30°40' W 026°20'0 0.0 1017.7 22.7
2017-Nov-17 10:00N 30°40' W 026°20'1 0.8 1017.3 22.7
2017-Nov-17 09:00N 30°40' W 026°20'1 0.6 1016.6 22.7
2017-Nov-17 08:00N 30°41' W 026°20'1 0.8 1016.1 22.7
2017-Nov-17 07:00N 30°41' W 026°19'1 0.8 1015.8 22.7
2017-Nov-17 06:00N 30°42' W 026°20'1 0.6 1015.8 22.7
2017-Nov-17 05:00N 30°43' W 026°20'1 0.6 1015.9 22.7
2017-Nov-17 04:00N 30°43' W 026°20'1 0.6 1016.2 22.7
2017-Nov-17 03:00N 30°44' W 026°20'1 0.8 1016.5 22.7
2017-Nov-17 02:00N 30°44' W 026°20'1 0.6 1016.6 22.7
2017-Nov-17 01:00N 30°45' W 026°20'1 0.5 1017.1 22.7
2017-Nov-17 00:00N 30°45' W 026°21'1 0.6 1017.3 22.7
2017-Nov-16 23:00N 30°46' W 026°21'1 0.6 1017.2 22.7
2017-Nov-16 22:00N 30°46' W 026°21'1 0.6 1017.0 22.8
2017-Nov-16 21:00N 30°47' W 026°21'0 0.0 1016.6 22.8
2017-Nov-16 20:00N 30°47' W 026°21'1 0.6 1016.4 22.8
2017-Nov-16 19:00N 30°47' W 026°21'1 0.6 1016.0 22.8
2017-Nov-16 18:00N 30°48' W 026°21'1 0.6 1015.6 22.8
2017-Nov-16 17:00N 30°49' W 026°21'1 0.6 1015.6 22.9
2017-Nov-16 16:00N 30°49' W 026°21'1 0.6 1015.6 22.9
2017-Nov-16 15:00N 30°50' W 026°21'1 0.8 1015.8 22.9
2017-Nov-16 14:00N 30°50' W 026°22'1 0.6 1016.3 22.9
2017-Nov-16 13:00N 30°51' W 026°22'0 0.0 1016.8 22.9
2017-Nov-16 12:00N 30°51' W 026°22'1 0.6 1017.2 22.9
2017-Nov-16 11:00N 30°52' W 026°22'1 0.6 1017.0 22.9
2017-Nov-16 10:00N 30°52' W 026°22'1 1.2 1016.8 22.9
2017-Nov-16 09:00N 30°53' W 026°22'1 0.6 1016.4 22.9
2017-Nov-16 08:00N 30°54' W 026°22'1 0.5 1015.7 22.9
2017-Nov-16 07:00N 30°54' W 026°22'1 0.6 1015.0 22.9
2017-Nov-16 06:00N 30°55' W 026°22'1 0.6 1014.7 22.9
2017-Nov-16 05:00N 30°55' W 026°22'0 0.0 1014.6 22.9
2017-Nov-16 04:00N 30°55' W 026°22'1 0.6 1014.7 23.0
2017-Nov-16 03:00N 30°56' W 026°22'1 0.6 1014.6 23.0
2017-Nov-16 02:00N 30°56' W 026°22'1 1.2 1014.5 23.0
2017-Nov-16 01:00N 30°58' W 026°22'1 0.8 1014.8 23.0
2017-Nov-16 00:00N 30°58' W 026°23'1 0.6 1014.8 23.0
2017-Nov-15 23:00N 30°59' W 026°23'1 0.5 1014.6 23.0
2017-Nov-15 22:00N 30°59' W 026°23'1 0.6 1014.5 23.1
2017-Nov-15 21:00N 30°59' W 026°23'1 0.8 1013.8 23.1
2017-Nov-15 20:00N 31°00' W 026°24'0 0.0 1013.2 23.1
2017-Nov-15 19:00N 31°00' W 026°24'1 0.6 1012.6 23.1
2017-Nov-15 18:00N 31°01' W 026°24'1 0.5 1012.6 23.1
2017-Nov-15 17:00N 31°01' W 026°25'1 1.2 1012.3 23.1
2017-Nov-15 16:00N 31°02' W 026°25'1 0.8 1012.3 23.1
2017-Nov-15 15:00N 31°02' W 026°25'1 0.8 1012.5 23.1
2017-Nov-15 14:00N 31°03' W 026°26'1 0.5 1011.7 23.1
2017-Nov-15 13:00N 31°03' W 026°26'0 0.0 1012.8 23.1
2017-Nov-15 12:00N 31°03' W 026°26'0 0.0 1013.6 23.1
2017-Nov-15 11:00N 31°03' W 026°26'1 0.5 1013.9 23.1
2017-Nov-15 10:00N 31°03' W 026°27'0 0.0 1013.6 23.1
2017-Nov-15 09:00N 31°03' W 026°27'1 0.8 1013.3 23.1
2017-Nov-15 08:00N 31°04' W 026°28'0 0.0 1012.6 23.1
2017-Nov-15 07:00N 31°04' W 026°28'1 0.5 1012.4 23.1
2017-Nov-15 06:00N 31°04' W 026°28'1 0.6 1012.6 23.1
2017-Nov-15 05:00N 31°04' W 026°28'0 0.0 1012.4 23.1
2017-Nov-15 04:00N 31°04' W 026°28'1 0.5 1012.8 23.2
2017-Nov-15 03:00N 31°04' W 026°29'0 0.0 1012.6 23.2
2017-Nov-15 02:00N 31°04' W 026°29'1 0.6 1012.6 23.2
2017-Nov-15 01:00N 31°05' W 026°29'1 0.5 1013.2 23.2
2017-Nov-15 00:00N 31°05' W 026°29'0 0.0 1013.3 23.2
2017-Nov-14 23:00N 31°05' W 026°29'1 0.5 1014.0 23.2
2017-Nov-14 22:00N 31°05' W 026°30'1 0.5 1014.3 23.2
2017-Nov-14 21:00N 31°05' W 026°31'1 0.8 1013.2 23.2
2017-Nov-14 20:00N 31°04' W 026°31'0 0.0 1012.9 23.2
2017-Nov-14 19:00N 31°04' W 026°31'0 0.0 1012.9 23.2
2017-Nov-14 18:00N 31°04' W 026°31'0 0.0 1012.7 23.2
2017-Nov-14 17:00N 31°04' W 026°31'0 0.0 1012.5 23.2
2017-Nov-14 16:00N 31°04' W 026°31'1 0.5 1012.7 23.2
2017-Nov-14 15:00N 31°04' W 026°32'0 0.0 1013.3 23.2
2017-Nov-14 14:00N 31°04' W 026°32'1 0.6 1013.6 23.2
2017-Nov-14 13:00N 31°04' W 026°32'1 0.5 1014.3 23.1
2017-Nov-14 12:00N 31°04' W 026°32'0 0.0 1014.8 23.1
2017-Nov-14 11:00N 31°04' W 026°32'0 0.0 1014.6 23.1
2017-Nov-14 10:00N 31°04' W 026°32'1 0.6 1014.7 23.1
2017-Nov-14 09:00N 31°03' W 026°32'0 0.0 1014.1 23.1
2017-Nov-14 08:00N 31°03' W 026°32'1 0.6 1013.3 23.1
2017-Nov-14 07:00N 31°02' W 026°32'1 0.5 1013.1 23.1
2017-Nov-14 06:00N 31°02' W 026°33'1 0.5 1013.4 23.1
2017-Nov-14 05:00N 31°02' W 026°32'0 0.0 1013.9 23.1
2017-Nov-14 04:00N 31°02' W 026°32'0 0.0 1014.1 23.1
2017-Nov-14 03:00N 31°02' W 026°32'0 0.0 1014.8 23.1
2017-Nov-14 02:00N 31°02' W 026°32'1 0.8 1015.0 23.1
2017-Nov-14 01:00N 31°03' W 026°33'0 0.0 1015.2 23.1
2017-Nov-14 00:00N 31°03' W 026°33'1 0.5 1015.5 23.1
2017-Nov-13 23:00N 31°03' W 026°34'1 0.6 1015.7 23.1
2017-Nov-13 22:00N 31°02' W 026°34'1 0.5 1015.7 23.1
2017-Nov-13 21:00N 31°02' W 026°34'1 0.6 1015.6 23.1
2017-Nov-13 20:00N 31°02' W 026°34'1 0.6 1015.7 23.1
2017-Nov-13 19:00N 31°01' W 026°34'1 0.6 1015.5 23.2
2017-Nov-13 18:00N 31°01' W 026°34'0 0.0 1015.2 23.2
2017-Nov-13 17:00N 31°01' W 026°34'1 0.8 1015.5 23.2
2017-Nov-13 16:00N 31°00' W 026°34'0 0.0 1015.0 23.2
2017-Nov-13 15:00N 31°00' W 026°34'1 0.8 1015.1 23.2
2017-Nov-13 14:00N 31°01' W 026°33'0 0.0 1015.9 23.1
2017-Nov-13 13:00N 31°01' W 026°33'0 0.0 1016.6 23.1
2017-Nov-13 12:00N 31°01' W 026°33'1 0.6 1017.5 23.1
2017-Nov-13 11:00N 31°01' W 026°33'0 0.0 1017.6 23.1
2017-Nov-13 10:00N 31°01' W 026°33'1 0.5 1017.7 23.0
2017-Nov-13 09:00N 31°01' W 026°34'0 0.0 1017.5 23.0
2017-Nov-13 08:00N 31°01' W 026°34'1 0.6 1016.4 23.0
2017-Nov-13 07:00N 31°01' W 026°34'0 0.0 1016.1 23.0
2017-Nov-13 06:00N 31°01' W 026°34'1 0.5 1016.8 23.1
2017-Nov-13 05:00N 31°01' W 026°34'1 0.6 1016.6 23.1
2017-Nov-13 04:00N 31°00' W 026°34'1 0.5 1016.8 23.1
2017-Nov-13 03:00N 31°00' W 026°34'0 0.0 1016.9 23.1
2017-Nov-13 02:00N 31°00' W 026°34'1 0.5 1017.2 23.1
2017-Nov-13 01:00N 31°00' W 026°33'0 0.0 1017.7 23.1
2017-Nov-13 00:00N 31°00' W 026°33'1 0.5 1018.2 23.1
2017-Nov-12 23:00N 31°00' W 026°32'1 0.6 1018.1 23.1
2017-Nov-12 22:00N 31°01' W 026°32'1 0.5 1018.2 23.1
2017-Nov-12 21:00N 31°01' W 026°32'0 0.0 1018.1 23.1
2017-Nov-12 20:00N 31°01' W 026°32'1 0.5 1018.0 23.1
2017-Nov-12 19:00N 31°01' W 026°31'1 0.6 1017.5 23.1
2017-Nov-12 18:00N 31°00' W 026°31'1 0.5 1017.5 23.2
2017-Nov-12 17:00N 31°00' W 026°31'1 0.5 1017.5 23.2
2017-Nov-12 16:00N 31°00' W 026°30'1 0.5 1017.7 23.2
2017-Nov-12 15:00N 31°00' W 026°29'1 0.5 1018.2 23.2
2017-Nov-12 14:00N 31°00' W 026°29'1 0.6 1018.9 23.1
2017-Nov-12 13:00N 31°01' W 026°29'1 0.5 1019.9 23.1
2017-Nov-12 12:00N 31°01' W 026°28'1 0.6 1020.5 23.1
2017-Nov-12 11:00N 31°01' W 026°28'1 0.8 1020.7 23.1
2017-Nov-12 10:00N 31°02' W 026°28'0 0.0 1020.6 23.1
2017-Nov-12 09:00N 31°02' W 026°28'0 0.0 1020.3 23.2
2017-Nov-12 08:00N 31°02' W 026°28'1 0.5 1019.9 23.2
2017-Nov-12 07:00N 31°02' W 026°27'0 0.0 1019.7 23.2
2017-Nov-12 06:00N 31°02' W 026°27'1 0.5 1019.6 23.2
2017-Nov-12 05:00N 31°02' W 026°26'1 0.5 1019.9 23.2
2017-Nov-12 04:00N 31°02' W 026°26'1 0.8 1020.2 23.2
2017-Nov-12 03:00N 31°02' W 026°25'1 0.5 1020.6 23.2
2017-Nov-12 02:00N 31°02' W 026°25'1 0.8 1020.8 23.2
2017-Nov-12 01:00N 31°03' W 026°24'1 0.6 1021.3 23.2
2017-Nov-12 00:00N 31°04' W 026°24'1 0.8 1021.8 23.2
2017-Nov-11 23:00N 31°04' W 026°23'1 0.5 1022.3 23.2
2017-Nov-11 22:00N 31°04' W 026°23'1 0.6 1021.9 23.2
2017-Nov-11 21:00N 31°05' W 026°23'1 0.8 1021.7 23.2
2017-Nov-11 20:00N 31°05' W 026°22'0 0.0 1021.4 23.2
2017-Nov-11 19:00N 31°05' W 026°22'1 0.8 1021.0 23.2
2017-Nov-11 18:00N 31°06' W 026°22'1 0.8 1020.7 23.2
2017-Nov-11 17:00N 31°07' W 026°21'1 0.5 1020.7 23.2
2017-Nov-11 16:00N 31°07' W 026°20'1 0.8 1020.8 23.2
2017-Nov-11 15:00N 31°07' W 026°20'1 0.6 1021.1 23.2
2017-Nov-11 14:00N 31°08' W 026°20'0 0.0 1021.7 23.2
2017-Nov-11 13:00N 31°08' W 026°20'1 0.8 1022.2 23.2
2017-Nov-11 12:00N 31°08' W 026°19'1 0.6 1022.7 23.1
2017-Nov-11 11:00N 31°09' W 026°19'1 0.5 1022.6 23.1
2017-Nov-11 10:00N 31°09' W 026°19'0 0.0 1022.2 23.1
2017-Nov-11 09:00N 31°09' W 026°19'   1021.9 23.1
Track history (hours):
 
Tides and Currents Weather Stations Pressure Air Temp Water Temp Dewpoint Dewpoint Depression Visibility Wind Speed Wind Dir Waves Ship Positions

Drifting buoy 44857

Last reported at 2017-Nov-21 09:00 UTC. Time now 2017-Nov-21 10:22 UTC.
Position N 30°26' W 026°07'.

Barometer 1008.1 mb
Water temperature 23.0 ° C

Date/timePositionNaut miles runAvg speedWind from/ knotsBaromVisibWave heightAir tempDewpointWater temp
2017-Nov-21 09:00N 30°26' W 026°07'1 1.2 1008.1 23.0
2017-Nov-21 08:00N 30°27' W 026°08'1 0.8 1006.7 23.0
2017-Nov-21 07:00N 30°28' W 026°08'1 0.8 1005.9 23.0
2017-Nov-21 06:00N 30°27' W 026°09'1 1.0 1006.0 23.0
2017-Nov-21 05:00N 30°27' W 026°10'1 0.6 1006.2 23.0
2017-Nov-21 04:00N 30°26' W 026°10'1 0.8 1007.2 23.0
2017-Nov-21 03:00N 30°26' W 026°11'1 0.6 1007.9 23.0
2017-Nov-21 02:00N 30°25' W 026°11'1 0.6 1009.0 23.0
2017-Nov-21 01:00N 30°25' W 026°11'0 0.0 1009.8 23.0
2017-Nov-21 00:00N 30°25' W 026°11'1 0.6 1010.2 23.0
2017-Nov-20 23:00N 30°24' W 026°11'1 0.5 1011.4 23.0
2017-Nov-20 22:00N 30°24' W 026°10'1 0.8 1011.8 23.0
2017-Nov-20 21:00N 30°25' W 026°11'0 0.0 1012.2 23.0
2017-Nov-20 20:00N 30°25' W 026°11'1 0.6 1012.2 22.8
2017-Nov-20 19:00N 30°24' W 026°11'1 0.5 1012.2 22.7
2017-Nov-20 18:00N 30°24' W 026°11'0 0.0 1012.3 22.7
2017-Nov-20 17:00N 30°24' W 026°11'1 0.5 1012.6 22.7
2017-Nov-20 16:00N 30°24' W 026°12'1 0.6 1013.0 22.6
2017-Nov-20 15:00N 30°23' W 026°12'1 0.5 1013.6 22.6
2017-Nov-20 14:00N 30°23' W 026°13'0 0.0 1014.7 22.6
2017-Nov-20 13:00N 30°23' W 026°13'0 0.0 1015.4 22.6
2017-Nov-20 12:00N 30°23' W 026°13'1 0.5 1016.1 22.6
2017-Nov-20 11:00N 30°23' W 026°12'1 0.6 1016.0 22.6
2017-Nov-20 10:00N 30°24' W 026°12'0 0.0 1016.0 22.6
2017-Nov-20 09:00N 30°24' W 026°12'0 0.0 1015.8 22.7
2017-Nov-20 08:00N 30°24' W 026°12'1 0.5 1015.6 22.7
2017-Nov-20 07:00N 30°24' W 026°13'0 0.0 1015.2 22.7
2017-Nov-20 06:00N 30°24' W 026°13'1 0.5 1015.0 22.7
2017-Nov-20 05:00N 30°24' W 026°13'0 0.0 1015.0 22.7
2017-Nov-20 04:00N 30°24' W 026°13'1 0.8 1015.7 22.7
2017-Nov-20 03:00N 30°23' W 026°14'1 0.6 1015.9 22.7
2017-Nov-20 02:00N 30°23' W 026°14'0 0.0 1016.2 22.8
2017-Nov-20 01:00N 30°23' W 026°14'0 0.0 1016.9 22.8
2017-Nov-20 00:00N 30°23' W 026°14'1 0.6 1017.1 22.8
2017-Nov-19 23:00N 30°22' W 026°14'1 0.8 1017.6 22.8
2017-Nov-19 22:00N 30°23' W 026°13'0 0.0 1017.8 22.8
2017-Nov-19 21:00N 30°23' W 026°13'1 0.6 1017.6 22.9
2017-Nov-19 20:00N 30°23' W 026°13'0 0.0 1017.3 22.9
2017-Nov-19 19:00N 30°23' W 026°13'0 0.0 1016.9 22.9
2017-Nov-19 18:00N 30°23' W 026°13'1 0.5 1016.8 23.0
2017-Nov-19 17:00N 30°23' W 026°14'0 0.0 1016.7 23.1
2017-Nov-19 16:00N 30°23' W 026°14'1 0.6 1016.6 23.2
2017-Nov-19 15:00N 30°24' W 026°14'1 0.5 1016.7 23.1
2017-Nov-19 14:00N 30°24' W 026°14'0 0.0 1017.7 23.1
2017-Nov-19 13:00N 30°24' W 026°14'0 0.0 1018.4 23.0
2017-Nov-19 12:00N 30°24' W 026°14'1 0.6 1018.9 22.9
2017-Nov-19 11:00N 30°25' W 026°14'1 0.6 1018.9 22.8
2017-Nov-19 10:00N 30°25' W 026°14'0 0.0 1019.3 22.7
2017-Nov-19 09:00N 30°25' W 026°14'1 0.8 1018.6 22.7
2017-Nov-19 08:00N 30°26' W 026°15'0 0.0 1017.9 22.7
2017-Nov-19 07:00N 30°26' W 026°15'1 0.8 1017.1 22.7
2017-Nov-19 06:00N 30°26' W 026°16'1 0.5 1017.0 22.7
2017-Nov-19 05:00N 30°26' W 026°16'0 0.0 1017.1 22.7
2017-Nov-19 04:00N 30°26' W 026°16'1 0.8 1017.6 22.7
2017-Nov-19 03:00N 30°26' W 026°17'0 0.0 1017.5 22.8
2017-Nov-19 02:00N 30°26' W 026°17'1 0.5 1017.9 22.7
2017-Nov-19 01:00N 30°26' W 026°16'0 0.0 1018.1 22.8
2017-Nov-19 00:00N 30°26' W 026°16'1 0.5 1017.9 22.8
2017-Nov-18 23:00N 30°26' W 026°16'1 0.6 1018.0 22.8
2017-Nov-18 22:00N 30°26' W 026°16'1 0.8 1017.8 22.8
2017-Nov-18 21:00N 30°27' W 026°15'1 1.2 1017.8 22.8
2017-Nov-18 20:00N 30°28' W 026°15'1 0.6 1017.4 22.9
2017-Nov-18 19:00N 30°29' W 026°15'1 0.8 1017.1 22.9
2017-Nov-18 18:00N 30°29' W 026°16'1 0.8 1017.1 23.0
2017-Nov-18 17:00N 30°30' W 026°16'1 0.5 1017.1 23.1
2017-Nov-18 16:00N 30°30' W 026°17'1 0.8 1017.0 23.2
2017-Nov-18 15:00N 30°31' W 026°17'0 0.0 1016.8 23.1
2017-Nov-18 14:00N 30°31' W 026°17'1 0.5 1017.3 23.0
2017-Nov-18 13:00N 30°31' W 026°18'0 0.0 1017.9 22.8
2017-Nov-18 12:00N 30°31' W 026°18'0 0.0 1018.7 22.7
2017-Nov-18 11:00N 30°31' W 026°18'0 0.0 1018.5 22.7
2017-Nov-18 10:00N 30°31' W 026°18'1 0.6 1018.2 22.7
2017-Nov-18 09:00N 30°31' W 026°18'1 0.6 1017.7 22.7
2017-Nov-18 08:00N 30°32' W 026°18'1 0.6 1017.0 22.6
2017-Nov-18 07:00N 30°32' W 026°18'1 0.8 1016.8 22.7
2017-Nov-18 06:00N 30°33' W 026°19'0 0.0 1016.6 22.7
2017-Nov-18 05:00N 30°33' W 026°19'1 0.8 1016.5 22.6
2017-Nov-18 04:00N 30°34' W 026°19'0 0.0 1016.7 22.7
2017-Nov-18 03:00N 30°34' W 026°19'1 0.8 1016.9 22.7
2017-Nov-18 02:00N 30°34' W 026°20'0 0.0 1017.4 22.7
2017-Nov-18 01:00N 30°34' W 026°20'0 0.0 1017.6 22.7
2017-Nov-18 00:00N 30°34' W 026°20'0 0.0 1017.2 22.7
2017-Nov-17 23:00N 30°34' W 026°20'1 0.8 1017.2 22.7
2017-Nov-17 22:00N 30°35' W 026°19'0 0.0 1017.3 22.6
2017-Nov-17 21:00N 30°35' W 026°19'1 0.8 1017.3 22.7
2017-Nov-17 20:00N 30°35' W 026°19'1 1.2 1016.9 22.7
2017-Nov-17 19:00N 30°37' W 026°19'1 0.6 1016.6 22.7
2017-Nov-17 18:00N 30°37' W 026°19'1 0.6 1016.3 22.8
2017-Nov-17 17:00N 30°38' W 026°19'1 0.8 1016.2 22.8
2017-Nov-17 16:00N 30°38' W 026°19'1 0.6 1016.1 22.8
2017-Nov-17 15:00N 30°39' W 026°19'1 0.5 1016.5 22.8
2017-Nov-17 14:00N 30°39' W 026°20'1 0.8 1016.8 22.7
2017-Nov-17 13:00N 30°40' W 026°20'0 0.0 1017.4 22.7
2017-Nov-17 12:00N 30°40' W 026°20'0 0.0 1018.0 22.7
2017-Nov-17 11:00N 30°40' W 026°20'0 0.0 1017.7 22.7
2017-Nov-17 10:00N 30°40' W 026°20'1 0.8 1017.3 22.7
2017-Nov-17 09:00N 30°40' W 026°20'1 0.6 1016.6 22.7
2017-Nov-17 08:00N 30°41' W 026°20'1 0.8 1016.1 22.7
2017-Nov-17 07:00N 30°41' W 026°19'1 0.8 1015.8 22.7
2017-Nov-17 06:00N 30°42' W 026°20'1 0.6 1015.8 22.7
2017-Nov-17 05:00N 30°43' W 026°20'1 0.6 1015.9 22.7
2017-Nov-17 04:00N 30°43' W 026°20'1 0.6 1016.2 22.7
2017-Nov-17 03:00N 30°44' W 026°20'1 0.8 1016.5 22.7
2017-Nov-17 02:00N 30°44' W 026°20'1 0.6 1016.6 22.7
2017-Nov-17 01:00N 30°45' W 026°20'1 0.5 1017.1 22.7
2017-Nov-17 00:00N 30°45' W 026°21'1 0.6 1017.3 22.7
2017-Nov-16 23:00N 30°46' W 026°21'1 0.6 1017.2 22.7
2017-Nov-16 22:00N 30°46' W 026°21'1 0.6 1017.0 22.8
2017-Nov-16 21:00N 30°47' W 026°21'0 0.0 1016.6 22.8
2017-Nov-16 20:00N 30°47' W 026°21'1 0.6 1016.4 22.8
2017-Nov-16 19:00N 30°47' W 026°21'1 0.6 1016.0 22.8
2017-Nov-16 18:00N 30°48' W 026°21'1 0.6 1015.6 22.8
2017-Nov-16 17:00N 30°49' W 026°21'1 0.6 1015.6 22.9
2017-Nov-16 16:00N 30°49' W 026°21'1 0.6 1015.6 22.9
2017-Nov-16 15:00N 30°50' W 026°21'1 0.8 1015.8 22.9
2017-Nov-16 14:00N 30°50' W 026°22'1 0.6 1016.3 22.9
2017-Nov-16 13:00N 30°51' W 026°22'0 0.0 1016.8 22.9
2017-Nov-16 12:00N 30°51' W 026°22'1 0.6 1017.2 22.9
2017-Nov-16 11:00N 30°52' W 026°22'1 0.6 1017.0 22.9
2017-Nov-16 10:00N 30°52' W 026°22'1 1.2 1016.8 22.9
2017-Nov-16 09:00N 30°53' W 026°22'1 0.6 1016.4 22.9
2017-Nov-16 08:00N 30°54' W 026°22'1 0.5 1015.7 22.9
2017-Nov-16 07:00N 30°54' W 026°22'1 0.6 1015.0 22.9
2017-Nov-16 06:00N 30°55' W 026°22'1 0.6 1014.7 22.9
2017-Nov-16 05:00N 30°55' W 026°22'0 0.0 1014.6 22.9
2017-Nov-16 04:00N 30°55' W 026°22'1 0.6 1014.7 23.0
2017-Nov-16 03:00N 30°56' W 026°22'1 0.6 1014.6 23.0
2017-Nov-16 02:00N 30°56' W 026°22'1 1.2 1014.5 23.0
2017-Nov-16 01:00N 30°58' W 026°22'1 0.8 1014.8 23.0
2017-Nov-16 00:00N 30°58' W 026°23'1 0.6 1014.8 23.0
2017-Nov-15 23:00N 30°59' W 026°23'1 0.5 1014.6 23.0
2017-Nov-15 22:00N 30°59' W 026°23'1 0.6 1014.5 23.1
2017-Nov-15 21:00N 30°59' W 026°23'1 0.8 1013.8 23.1
2017-Nov-15 20:00N 31°00' W 026°24'0 0.0 1013.2 23.1
2017-Nov-15 19:00N 31°00' W 026°24'1 0.6 1012.6 23.1
2017-Nov-15 18:00N 31°01' W 026°24'1 0.5 1012.6 23.1
2017-Nov-15 17:00N 31°01' W 026°25'1 1.2 1012.3 23.1
2017-Nov-15 16:00N 31°02' W 026°25'1 0.8 1012.3 23.1
2017-Nov-15 15:00N 31°02' W 026°25'1 0.8 1012.5 23.1
2017-Nov-15 14:00N 31°03' W 026°26'1 0.5 1011.7 23.1
2017-Nov-15 13:00N 31°03' W 026°26'0 0.0 1012.8 23.1
2017-Nov-15 12:00N 31°03' W 026°26'0 0.0 1013.6 23.1
2017-Nov-15 11:00N 31°03' W 026°26'1 0.5 1013.9 23.1
2017-Nov-15 10:00N 31°03' W 026°27'0 0.0 1013.6 23.1
2017-Nov-15 09:00N 31°03' W 026°27'1 0.8 1013.3 23.1
2017-Nov-15 08:00N 31°04' W 026°28'0 0.0 1012.6 23.1
2017-Nov-15 07:00N 31°04' W 026°28'1 0.5 1012.4 23.1
2017-Nov-15 06:00N 31°04' W 026°28'1 0.6 1012.6 23.1
2017-Nov-15 05:00N 31°04' W 026°28'0 0.0 1012.4 23.1
2017-Nov-15 04:00N 31°04' W 026°28'1 0.5 1012.8 23.2
2017-Nov-15 03:00N 31°04' W 026°29'0 0.0 1012.6 23.2
2017-Nov-15 02:00N 31°04' W 026°29'1 0.6 1012.6 23.2
2017-Nov-15 01:00N 31°05' W 026°29'1 0.5 1013.2 23.2
2017-Nov-15 00:00N 31°05' W 026°29'0 0.0 1013.3 23.2
2017-Nov-14 23:00N 31°05' W 026°29'1 0.5 1014.0 23.2
2017-Nov-14 22:00N 31°05' W 026°30'1 0.5 1014.3 23.2
2017-Nov-14 21:00N 31°05' W 026°31'1 0.8 1013.2 23.2
2017-Nov-14 20:00N 31°04' W 026°31'0 0.0 1012.9 23.2
2017-Nov-14 19:00N 31°04' W 026°31'0 0.0 1012.9 23.2
2017-Nov-14 18:00N 31°04' W 026°31'0 0.0 1012.7 23.2
2017-Nov-14 17:00N 31°04' W 026°31'0 0.0 1012.5 23.2
2017-Nov-14 16:00N 31°04' W 026°31'1 0.5 1012.7 23.2
2017-Nov-14 15:00N 31°04' W 026°32'0 0.0 1013.3 23.2
2017-Nov-14 14:00N 31°04' W 026°32'1 0.6 1013.6 23.2
2017-Nov-14 13:00N 31°04' W 026°32'1 0.5 1014.3 23.1
2017-Nov-14 12:00N 31°04' W 026°32'0 0.0 1014.8 23.1
2017-Nov-14 11:00N 31°04' W 026°32'0 0.0 1014.6 23.1
2017-Nov-14 10:00N 31°04' W 026°32'1 0.6 1014.7 23.1
2017-Nov-14 09:00N 31°03' W 026°32'0 0.0 1014.1 23.1
2017-Nov-14 08:00N 31°03' W 026°32'1 0.6 1013.3 23.1
2017-Nov-14 07:00N 31°02' W 026°32'1 0.5 1013.1 23.1
2017-Nov-14 06:00N 31°02' W 026°33'1 0.5 1013.4 23.1
2017-Nov-14 05:00N 31°02' W 026°32'0 0.0 1013.9 23.1
2017-Nov-14 04:00N 31°02' W 026°32'0 0.0 1014.1 23.1
2017-Nov-14 03:00N 31°02' W 026°32'0 0.0 1014.8 23.1
2017-Nov-14 02:00N 31°02' W 026°32'1 0.8 1015.0 23.1
2017-Nov-14 01:00N 31°03' W 026°33'0 0.0 1015.2 23.1
2017-Nov-14 00:00N 31°03' W 026°33'1 0.5 1015.5 23.1
2017-Nov-13 23:00N 31°03' W 026°34'1 0.6 1015.7 23.1
2017-Nov-13 22:00N 31°02' W 026°34'1 0.5 1015.7 23.1
2017-Nov-13 21:00N 31°02' W 026°34'1 0.6 1015.6 23.1
2017-Nov-13 20:00N 31°02' W 026°34'1 0.6 1015.7 23.1
2017-Nov-13 19:00N 31°01' W 026°34'1 0.6 1015.5 23.2
2017-Nov-13 18:00N 31°01' W 026°34'0 0.0 1015.2 23.2
2017-Nov-13 17:00N 31°01' W 026°34'1 0.8 1015.5 23.2
2017-Nov-13 16:00N 31°00' W 026°34'0 0.0 1015.0 23.2
2017-Nov-13 15:00N 31°00' W 026°34'1 0.8 1015.1 23.2
2017-Nov-13 14:00N 31°01' W 026°33'0 0.0 1015.9 23.1
2017-Nov-13 13:00N 31°01' W 026°33'0 0.0 1016.6 23.1
2017-Nov-13 12:00N 31°01' W 026°33'1 0.6 1017.5 23.1
2017-Nov-13 11:00N 31°01' W 026°33'0 0.0 1017.6 23.1
2017-Nov-13 10:00N 31°01' W 026°33'1 0.5 1017.7 23.0
2017-Nov-13 09:00N 31°01' W 026°34'0 0.0 1017.5 23.0
2017-Nov-13 08:00N 31°01' W 026°34'1 0.6 1016.4 23.0
2017-Nov-13 07:00N 31°01' W 026°34'0 0.0 1016.1 23.0
2017-Nov-13 06:00N 31°01' W 026°34'1 0.5 1016.8 23.1
2017-Nov-13 05:00N 31°01' W 026°34'1 0.6 1016.6 23.1
2017-Nov-13 04:00N 31°00' W 026°34'1 0.5 1016.8 23.1
2017-Nov-13 03:00N 31°00' W 026°34'0 0.0 1016.9 23.1
2017-Nov-13 02:00N 31°00' W 026°34'1 0.5 1017.2 23.1
2017-Nov-13 01:00N 31°00' W 026°33'0 0.0 1017.7 23.1
2017-Nov-13 00:00N 31°00' W 026°33'1 0.5 1018.2 23.1
2017-Nov-12 23:00N 31°00' W 026°32'1 0.6 1018.1 23.1
2017-Nov-12 22:00N 31°01' W 026°32'1 0.5 1018.2 23.1
2017-Nov-12 21:00N 31°01' W 026°32'0 0.0 1018.1 23.1
2017-Nov-12 20:00N 31°01' W 026°32'1 0.5 1018.0 23.1
2017-Nov-12 19:00N 31°01' W 026°31'1 0.6 1017.5 23.1
2017-Nov-12 18:00N 31°00' W 026°31'1 0.5 1017.5 23.2
2017-Nov-12 17:00N 31°00' W 026°31'1 0.5 1017.5 23.2
2017-Nov-12 16:00N 31°00' W 026°30'1 0.5 1017.7 23.2
2017-Nov-12 15:00N 31°00' W 026°29'1 0.5 1018.2 23.2
2017-Nov-12 14:00N 31°00' W 026°29'1 0.6 1018.9 23.1
2017-Nov-12 13:00N 31°01' W 026°29'1 0.5 1019.9 23.1
2017-Nov-12 12:00N 31°01' W 026°28'1 0.6 1020.5 23.1
2017-Nov-12 11:00N 31°01' W 026°28'1 0.8 1020.7 23.1
2017-Nov-12 10:00N 31°02' W 026°28'0 0.0 1020.6 23.1
2017-Nov-12 09:00N 31°02' W 026°28'0 0.0 1020.3 23.2
2017-Nov-12 08:00N 31°02' W 026°28'1 0.5 1019.9 23.2
2017-Nov-12 07:00N 31°02' W 026°27'0 0.0 1019.7 23.2
2017-Nov-12 06:00N 31°02' W 026°27'1 0.5 1019.6 23.2
2017-Nov-12 05:00N 31°02' W 026°26'1 0.5 1019.9 23.2
2017-Nov-12 04:00N 31°02' W 026°26'1 0.8 1020.2 23.2
2017-Nov-12 03:00N 31°02' W 026°25'1 0.5 1020.6 23.2
2017-Nov-12 02:00N 31°02' W 026°25'1 0.8 1020.8 23.2
2017-Nov-12 01:00N 31°03' W 026°24'1 0.6 1021.3 23.2
2017-Nov-12 00:00N 31°04' W 026°24'1 0.8 1021.8 23.2
2017-Nov-11 23:00N 31°04' W 026°23'1 0.5 1022.3 23.2
2017-Nov-11 22:00N 31°04' W 026°23'1 0.6 1021.9 23.2
2017-Nov-11 21:00N 31°05' W 026°23'1 0.8 1021.7 23.2
2017-Nov-11 20:00N 31°05' W 026°22'0 0.0 1021.4 23.2
2017-Nov-11 19:00N 31°05' W 026°22'1 0.8 1021.0 23.2
2017-Nov-11 18:00N 31°06' W 026°22'1 0.8 1020.7 23.2
2017-Nov-11 17:00N 31°07' W 026°21'1 0.5 1020.7 23.2
2017-Nov-11 16:00N 31°07' W 026°20'1 0.8 1020.8 23.2
2017-Nov-11 15:00N 31°07' W 026°20'1 0.6 1021.1 23.2
2017-Nov-11 14:00N 31°08' W 026°20'0 0.0 1021.7 23.2
2017-Nov-11 13:00N 31°08' W 026°20'1 0.8 1022.2 23.2
2017-Nov-11 12:00N 31°08' W 026°19'1 0.6 1022.7 23.1
2017-Nov-11 11:00N 31°09' W 026°19'1 0.5 1022.6 23.1
2017-Nov-11 10:00N 31°09' W 026°19'0 0.0 1022.2 23.1
2017-Nov-11 09:00N 31°09' W 026°19'   1021.9 23.1

Dump ship's entire track history